createdAt,value
2018-07-19T00:00:10.549Z,1012.91
2018-07-19T00:00:36.704Z,1012.89
2018-07-19T00:01:02.839Z,1012.9
2018-07-19T00:01:28.985Z,1012.89
2018-07-19T00:01:55.117Z,1012.89
2018-07-19T00:02:21.266Z,1012.84
2018-07-19T00:02:47.406Z,1012.86
2018-07-19T00:03:13.544Z,1012.85
2018-07-19T00:03:39.684Z,1012.85
2018-07-19T00:04:05.826Z,1012.88
2018-07-19T00:04:31.964Z,1012.88
2018-07-19T00:04:58.126Z,1012.92
2018-07-19T00:05:24.249Z,1012.89
2018-07-19T00:05:50.381Z,1012.91
2018-07-19T00:06:16.520Z,1012.91
2018-07-19T00:06:42.666Z,1012.92
2018-07-19T00:07:08.799Z,1012.93
2018-07-19T00:07:34.937Z,1012.91
2018-07-19T00:08:01.110Z,1012.93
2018-07-19T00:08:27.253Z,1012.9
2018-07-19T00:08:53.424Z,1012.93
2018-07-19T00:09:19.560Z,1012.94
2018-07-19T00:09:45.715Z,1012.95
2018-07-19T00:10:11.862Z,1012.96
2018-07-19T00:10:37.993Z,1012.94
2018-07-19T00:11:04.138Z,1012.95
2018-07-19T00:11:30.325Z,1012.94
2018-07-19T00:11:56.459Z,1012.94
2018-07-19T00:12:22.853Z,1012.92
2018-07-19T00:12:48.989Z,1012.91
2018-07-19T00:13:15.123Z,1012.93
2018-07-19T00:13:41.314Z,1012.91
2018-07-19T00:14:07.453Z,1012.91
2018-07-19T00:14:33.594Z,1012.93
2018-07-19T00:14:59.745Z,1012.94
2018-07-19T00:15:25.901Z,1012.89
2018-07-19T00:15:52.034Z,1012.9
2018-07-19T00:16:18.198Z,1012.92
2018-07-19T00:16:44.331Z,1012.91
2018-07-19T00:17:10.506Z,1012.93
2018-07-19T00:17:36.696Z,1012.9
2018-07-19T00:18:02.857Z,1012.93
2018-07-19T00:18:28.994Z,1012.94
2018-07-19T00:18:55.141Z,1012.95
2018-07-19T00:19:21.266Z,1012.96
2018-07-19T00:19:47.404Z,1012.96
2018-07-19T00:20:13.545Z,1012.93
2018-07-19T00:20:39.679Z,1012.96
2018-07-19T00:21:05.842Z,1012.95
2018-07-19T00:21:31.984Z,1012.95
2018-07-19T00:21:58.123Z,1012.94
2018-07-19T00:22:24.261Z,1012.97
2018-07-19T00:22:50.401Z,1012.97
2018-07-19T00:23:16.541Z,1012.99
2018-07-19T00:23:42.747Z,1012.97
2018-07-19T00:24:08.860Z,1012.95
2018-07-19T00:24:34.999Z,1012.97
2018-07-19T00:25:01.136Z,1012.94
2018-07-19T00:25:27.274Z,1012.96
2018-07-19T00:25:53.417Z,1012.99
2018-07-19T00:26:19.563Z,1012.97
2018-07-19T00:26:45.701Z,1012.99
2018-07-19T00:27:11.858Z,1012.95
2018-07-19T00:27:38.002Z,1012.97
2018-07-19T00:28:04.158Z,1012.99
2018-07-19T00:28:30.339Z,1013.02
2018-07-19T00:28:56.480Z,1013.02
2018-07-19T00:29:22.620Z,1013.02
2018-07-19T00:29:48.752Z,1013.02
2018-07-19T00:30:14.895Z,1013.03
2018-07-19T00:30:41.054Z,1013.03
2018-07-19T00:31:07.216Z,1013.03
2018-07-19T00:31:33.360Z,1013.05
2018-07-19T00:31:59.505Z,1013.04
2018-07-19T00:32:25.635Z,1013.03
2018-07-19T00:32:51.777Z,1013.06
2018-07-19T00:33:17.907Z,1013.02
2018-07-19T00:33:44.050Z,1013.08
2018-07-19T00:34:10.212Z,1013.06
2018-07-19T00:34:36.348Z,1013.03
2018-07-19T00:35:02.509Z,1013.05
2018-07-19T00:35:28.643Z,1013.06
2018-07-19T00:35:54.780Z,1013.03
2018-07-19T00:36:20.925Z,1013.01
2018-07-19T00:36:47.085Z,1013.05
2018-07-19T00:37:13.223Z,1013.08
2018-07-19T00:37:39.357Z,1013.07
2018-07-19T00:38:05.502Z,1013.06
2018-07-19T00:38:31.659Z,1013.08
2018-07-19T00:38:57.789Z,1013.08
2018-07-19T00:39:23.976Z,1013.06
2018-07-19T00:39:50.152Z,1013.05
2018-07-19T00:40:16.311Z,1013.07
2018-07-19T00:40:42.453Z,1013.09
2018-07-19T00:41:08.710Z,1013.09
2018-07-19T00:41:34.881Z,1013.05
2018-07-19T00:42:01.092Z,1013.06
2018-07-19T00:42:27.234Z,1013.07
2018-07-19T00:42:53.368Z,1013.03
2018-07-19T00:43:19.502Z,1013.06
2018-07-19T00:43:45.660Z,1013.06
2018-07-19T00:44:11.805Z,1013.07
2018-07-19T00:44:37.939Z,1013.07
2018-07-19T00:45:04.103Z,1013.06
2018-07-19T00:45:30.243Z,1013.05
2018-07-19T00:45:56.377Z,1013.05
2018-07-19T00:46:22.519Z,1013.03
2018-07-19T00:46:48.659Z,1013.03
2018-07-19T00:47:14.792Z,1013.06
2018-07-19T00:47:40.927Z,1013.02
2018-07-19T00:48:07.080Z,1013.03
2018-07-19T00:48:33.208Z,1013.02
2018-07-19T00:48:59.347Z,1013.02
2018-07-19T00:49:25.493Z,1012.98
2018-07-19T00:49:51.631Z,1013.01
2018-07-19T00:50:17.758Z,1013
2018-07-19T00:50:43.944Z,1013
2018-07-19T00:51:10.052Z,1012.98
2018-07-19T00:51:36.190Z,1013
2018-07-19T00:52:02.949Z,1013
2018-07-19T00:52:29.084Z,1013
2018-07-19T00:52:55.223Z,1013.03
2018-07-19T00:53:21.356Z,1013.04
2018-07-19T00:53:47.497Z,1013.03
2018-07-19T00:54:13.629Z,1013.01
2018-07-19T00:54:39.773Z,1012.97
2018-07-19T00:55:05.905Z,1013.02
2018-07-19T00:55:32.049Z,1013.05
2018-07-19T00:55:58.188Z,1013.01
2018-07-19T00:56:24.356Z,1013.01
2018-07-19T00:56:50.520Z,1013.02
2018-07-19T00:57:16.676Z,1012.98
2018-07-19T00:57:42.812Z,1013
2018-07-19T00:58:08.954Z,1012.96
2018-07-19T00:58:35.095Z,1013.02
2018-07-19T00:59:01.263Z,1013
2018-07-19T00:59:27.402Z,1012.99
2018-07-19T00:59:53.562Z,1013
2018-07-19T01:00:19.710Z,1013.02
2018-07-19T01:00:45.874Z,1012.97
2018-07-19T01:01:12.002Z,1013.01
2018-07-19T01:01:38.141Z,1012.99
2018-07-19T01:02:04.304Z,1013.01
2018-07-19T01:02:30.446Z,1013.02
2018-07-19T01:02:56.583Z,1012.99
2018-07-19T01:03:22.714Z,1012.99
2018-07-19T01:03:48.854Z,1013
2018-07-19T01:04:14.994Z,1012.99
2018-07-19T01:04:41.158Z,1013
2018-07-19T01:05:07.294Z,1013.01
2018-07-19T01:05:33.432Z,1013
2018-07-19T01:05:59.596Z,1013.03
2018-07-19T01:06:25.729Z,1013
2018-07-19T01:06:51.868Z,1013.01
2018-07-19T01:07:18.009Z,1013.01
2018-07-19T01:07:44.141Z,1012.99
2018-07-19T01:08:10.289Z,1012.99
2018-07-19T01:08:36.421Z,1012.98
2018-07-19T01:09:02.563Z,1012.97
2018-07-19T01:09:28.698Z,1012.98
2018-07-19T01:09:54.841Z,1013
2018-07-19T01:10:20.983Z,1013.02
2018-07-19T01:10:47.116Z,1013.02
2018-07-19T01:11:13.257Z,1012.97
2018-07-19T01:11:39.393Z,1013
2018-07-19T01:12:05.569Z,1013.01
2018-07-19T01:12:31.701Z,1013
2018-07-19T01:12:57.836Z,1013.02
2018-07-19T01:13:23.978Z,1012.99
2018-07-19T01:13:50.123Z,1013
2018-07-19T01:14:16.267Z,1013
2018-07-19T01:14:42.412Z,1013
2018-07-19T01:15:08.547Z,1012.97
2018-07-19T01:15:34.681Z,1012.98
2018-07-19T01:16:00.849Z,1012.95
2018-07-19T01:16:27.010Z,1012.98
2018-07-19T01:16:53.177Z,1012.98
2018-07-19T01:17:19.315Z,1012.96
2018-07-19T01:17:45.477Z,1012.97
2018-07-19T01:18:11.607Z,1012.98
2018-07-19T01:18:37.774Z,1012.96
2018-07-19T01:19:03.905Z,1012.94
2018-07-19T01:19:30.047Z,1012.96
2018-07-19T01:19:56.178Z,1012.97
2018-07-19T01:20:22.348Z,1012.98
2018-07-19T01:20:48.487Z,1012.94
2018-07-19T01:21:14.654Z,1012.97
2018-07-19T01:21:40.790Z,1012.93
2018-07-19T01:22:06.960Z,1012.94
2018-07-19T01:22:33.096Z,1012.94
2018-07-19T01:22:59.234Z,1012.94
2018-07-19T01:23:25.377Z,1012.93
2018-07-19T01:23:51.550Z,1012.91
2018-07-19T01:24:17.700Z,1012.94
2018-07-19T01:24:43.838Z,1012.93
2018-07-19T01:25:09.982Z,1012.93
2018-07-19T01:25:36.115Z,1012.91
2018-07-19T01:26:02.259Z,1012.93
2018-07-19T01:26:28.391Z,1012.93
2018-07-19T01:26:54.577Z,1012.88
2018-07-19T01:27:20.741Z,1012.91
2018-07-19T01:27:46.882Z,1012.88
2018-07-19T01:28:13.018Z,1012.86
2018-07-19T01:28:39.156Z,1012.9
2018-07-19T01:29:05.296Z,1012.9
2018-07-19T01:29:31.457Z,1012.91
2018-07-19T01:29:57.640Z,1012.91
2018-07-19T01:30:23.803Z,1012.88
2018-07-19T01:30:49.955Z,1012.89
2018-07-19T01:31:16.087Z,1012.89
2018-07-19T01:31:42.226Z,1012.89
2018-07-19T01:32:08.363Z,1012.88
2018-07-19T01:32:34.501Z,1012.92
2018-07-19T01:33:00.665Z,1012.89
2018-07-19T01:33:26.802Z,1012.92
2018-07-19T01:33:52.966Z,1012.9
2018-07-19T01:34:19.103Z,1012.88
2018-07-19T01:34:45.237Z,1012.88
2018-07-19T01:35:11.381Z,1012.9
2018-07-19T01:35:37.521Z,1012.89
2018-07-19T01:36:03.663Z,1012.89
2018-07-19T01:36:29.802Z,1012.87
2018-07-19T01:36:55.944Z,1012.91
2018-07-19T01:37:22.127Z,1012.85
2018-07-19T01:37:48.298Z,1012.87
2018-07-19T01:38:14.436Z,1012.86
2018-07-19T01:38:40.576Z,1012.87
2018-07-19T01:39:06.713Z,1012.86
2018-07-19T01:39:32.855Z,1012.86
2018-07-19T01:39:58.993Z,1012.83
2018-07-19T01:40:25.156Z,1012.85
2018-07-19T01:40:51.303Z,1012.85
2018-07-19T01:41:17.438Z,1012.85
2018-07-19T01:41:43.572Z,1012.85
2018-07-19T01:42:09.733Z,1012.83
2018-07-19T01:42:35.879Z,1012.86
2018-07-19T01:43:02.043Z,1012.85
2018-07-19T01:43:28.183Z,1012.8
2018-07-19T01:43:54.332Z,1012.78
2018-07-19T01:44:20.476Z,1012.85
2018-07-19T01:44:46.604Z,1012.85
2018-07-19T01:45:12.748Z,1012.85
2018-07-19T01:45:38.887Z,1012.83
2018-07-19T01:46:05.030Z,1012.83
2018-07-19T01:46:31.164Z,1012.86
2018-07-19T01:46:57.298Z,1012.82
2018-07-19T01:47:23.443Z,1012.84
2018-07-19T01:47:49.576Z,1012.82
2018-07-19T01:48:15.740Z,1012.81
2018-07-19T01:48:41.881Z,1012.82
2018-07-19T01:49:08.055Z,1012.85
2018-07-19T01:49:34.199Z,1012.83
2018-07-19T01:50:00.359Z,1012.85
2018-07-19T01:50:26.494Z,1012.84
2018-07-19T01:50:52.632Z,1012.82
2018-07-19T01:51:18.772Z,1012.86
2018-07-19T01:51:44.932Z,1012.85
2018-07-19T01:52:11.074Z,1012.84
2018-07-19T01:52:37.208Z,1012.85
2018-07-19T01:53:03.356Z,1012.83
2018-07-19T01:53:29.496Z,1012.81
2018-07-19T01:53:55.665Z,1012.85
2018-07-19T01:54:21.804Z,1012.85
2018-07-19T01:54:47.946Z,1012.88
2018-07-19T01:55:14.075Z,1012.87
2018-07-19T01:55:40.230Z,1012.87
2018-07-19T01:56:06.395Z,1012.87
2018-07-19T01:56:32.530Z,1012.88
2018-07-19T01:56:58.692Z,1012.82
2018-07-19T01:57:24.833Z,1012.87
2018-07-19T01:57:50.969Z,1012.85
2018-07-19T01:58:17.108Z,1012.86
2018-07-19T01:58:43.255Z,1012.86
2018-07-19T01:59:09.391Z,1012.85
2018-07-19T01:59:35.531Z,1012.85
2018-07-19T02:00:01.674Z,1012.85
2018-07-19T02:00:27.823Z,1012.84
2018-07-19T02:00:53.961Z,1012.86
2018-07-19T02:01:20.109Z,1012.83
2018-07-19T02:01:46.241Z,1012.86
2018-07-19T02:02:12.374Z,1012.83
2018-07-19T02:02:38.523Z,1012.83
2018-07-19T02:03:04.659Z,1012.84
2018-07-19T02:03:30.799Z,1012.85
2018-07-19T02:03:56.928Z,1012.86
2018-07-19T02:04:23.067Z,1012.84
2018-07-19T02:04:49.199Z,1012.88
2018-07-19T02:05:15.354Z,1012.83
2018-07-19T02:05:41.486Z,1012.86
2018-07-19T02:06:07.640Z,1012.88
2018-07-19T02:06:33.778Z,1012.91
2018-07-19T02:06:59.925Z,1012.88
2018-07-19T02:07:26.069Z,1012.9
2018-07-19T02:07:52.212Z,1012.89
2018-07-19T02:08:18.351Z,1012.89
2018-07-19T02:08:44.499Z,1012.91
2018-07-19T02:09:10.634Z,1012.92
2018-07-19T02:09:36.775Z,1012.88
2018-07-19T02:10:02.912Z,1012.9
2018-07-19T02:10:29.077Z,1012.9
2018-07-19T02:10:55.217Z,1012.94
2018-07-19T02:11:21.384Z,1012.9
2018-07-19T02:11:47.518Z,1012.94
2018-07-19T02:12:13.678Z,1012.89
2018-07-19T02:12:39.821Z,1012.92
2018-07-19T02:13:05.963Z,1012.94
2018-07-19T02:13:32.095Z,1012.91
2018-07-19T02:13:58.233Z,1012.92
2018-07-19T02:14:24.377Z,1012.89
2018-07-19T02:14:50.520Z,1012.89
2018-07-19T02:15:16.655Z,1012.92
2018-07-19T02:15:42.792Z,1012.91
2018-07-19T02:16:08.929Z,1012.91
2018-07-19T02:16:35.082Z,1012.89
2018-07-19T02:17:01.224Z,1012.91
2018-07-19T02:17:27.378Z,1012.92
2018-07-19T02:17:53.516Z,1012.91
2018-07-19T02:18:19.651Z,1012.91
2018-07-19T02:18:45.800Z,1012.93
2018-07-19T02:19:11.926Z,1012.93
2018-07-19T02:19:38.070Z,1012.91
2018-07-19T02:20:04.211Z,1012.94
2018-07-19T02:20:30.366Z,1012.94
2018-07-19T02:20:56.481Z,1012.98
2018-07-19T02:21:22.621Z,1012.94
2018-07-19T02:21:48.755Z,1012.93
2018-07-19T02:22:14.892Z,1012.97
2018-07-19T02:22:41.030Z,1012.97
2018-07-19T02:23:07.162Z,1012.97
2018-07-19T02:23:33.311Z,1012.99
2018-07-19T02:23:59.444Z,1012.97
2018-07-19T02:24:25.611Z,1012.98
2018-07-19T02:24:51.741Z,1012.94
2018-07-19T02:25:17.891Z,1012.97
2018-07-19T02:25:44.038Z,1013.01
2018-07-19T02:26:10.176Z,1012.98
2018-07-19T02:26:36.313Z,1012.98
2018-07-19T02:27:02.457Z,1013.02
2018-07-19T02:27:28.594Z,1013.01
2018-07-19T02:27:54.757Z,1013.03
2018-07-19T02:28:20.894Z,1013.02
2018-07-19T02:28:47.031Z,1012.99
2018-07-19T02:29:13.168Z,1013
2018-07-19T02:29:39.312Z,1013
2018-07-19T02:30:05.466Z,1013.01
2018-07-19T02:30:31.621Z,1012.98
2018-07-19T02:30:57.761Z,1013.02
2018-07-19T02:31:23.895Z,1013.02
2018-07-19T02:31:50.034Z,1013.02
2018-07-19T02:32:16.171Z,1013
2018-07-19T02:32:42.319Z,1012.98
2018-07-19T02:33:08.451Z,1013.01
2018-07-19T02:33:34.587Z,1013
2018-07-19T02:34:00.723Z,1013
2018-07-19T02:34:26.860Z,1013
2018-07-19T02:34:52.990Z,1012.97
2018-07-19T02:35:19.138Z,1013.01
2018-07-19T02:35:45.274Z,1012.97
2018-07-19T02:36:11.429Z,1013
2018-07-19T02:36:37.563Z,1012.97
2018-07-19T02:37:03.699Z,1012.96
2018-07-19T02:37:29.843Z,1012.99
2018-07-19T02:37:55.975Z,1012.95
2018-07-19T02:38:22.148Z,1012.99
2018-07-19T02:38:48.287Z,1012.98
2018-07-19T02:39:14.422Z,1012.97
2018-07-19T02:39:40.564Z,1012.96
2018-07-19T02:40:06.707Z,1012.95
2018-07-19T02:40:32.844Z,1012.94
2018-07-19T02:40:58.989Z,1012.99
2018-07-19T02:41:25.118Z,1012.98
2018-07-19T02:41:51.258Z,1013
2018-07-19T02:42:17.397Z,1012.94
2018-07-19T02:42:43.537Z,1013
2018-07-19T02:43:09.677Z,1013
2018-07-19T02:43:35.825Z,1012.97
2018-07-19T02:44:01.969Z,1012.96
2018-07-19T02:44:28.126Z,1012.99
2018-07-19T02:44:54.263Z,1012.99
2018-07-19T02:45:20.406Z,1013
2018-07-19T02:45:46.594Z,1012.98
2018-07-19T02:46:12.726Z,1012.95
2018-07-19T02:46:39.070Z,1012.96
2018-07-19T02:47:05.215Z,1013
2018-07-19T02:47:31.381Z,1012.99
2018-07-19T02:47:57.541Z,1012.96
2018-07-19T02:48:23.680Z,1012.96
2018-07-19T02:48:49.840Z,1012.98
2018-07-19T02:49:15.984Z,1012.99
2018-07-19T02:49:42.139Z,1012.98
2018-07-19T02:50:08.280Z,1012.96
2018-07-19T02:50:34.452Z,1012.95
2018-07-19T02:51:00.595Z,1012.95
2018-07-19T02:51:26.754Z,1012.97
2018-07-19T02:51:52.894Z,1012.98
2018-07-19T02:52:19.060Z,1012.98
2018-07-19T02:52:45.199Z,1013
2018-07-19T02:53:11.336Z,1012.98
2018-07-19T02:53:37.468Z,1012.98
2018-07-19T02:54:03.621Z,1012.94
2018-07-19T02:54:29.782Z,1012.99
2018-07-19T02:54:55.967Z,1012.96
2018-07-19T02:55:22.103Z,1012.99
2018-07-19T02:55:48.239Z,1012.96
2018-07-19T02:56:14.382Z,1012.96
2018-07-19T02:56:40.518Z,1012.97
2018-07-19T02:57:07.289Z,1012.96
2018-07-19T02:57:33.424Z,1012.93
2018-07-19T02:57:59.572Z,1012.96
2018-07-19T02:58:25.729Z,1012.93
2018-07-19T02:58:51.884Z,1012.91
2018-07-19T02:59:18.016Z,1012.92
2018-07-19T02:59:44.154Z,1012.91
2018-07-19T03:00:10.324Z,1012.96
2018-07-19T03:00:36.496Z,1012.93
2018-07-19T03:01:02.598Z,1012.92
2018-07-19T03:01:28.736Z,1012.92
2018-07-19T03:01:54.874Z,1012.96
2018-07-19T03:02:21.012Z,1012.91
2018-07-19T03:02:47.156Z,1012.94
2018-07-19T03:03:13.330Z,1012.97
2018-07-19T03:03:39.469Z,1012.95
2018-07-19T03:04:05.608Z,1012.98
2018-07-19T03:04:31.809Z,1012.94
2018-07-19T03:04:57.949Z,1012.98
2018-07-19T03:05:24.165Z,1012.99
2018-07-19T03:05:50.359Z,1012.94
2018-07-19T03:06:16.485Z,1012.95
2018-07-19T03:06:42.623Z,1012.97
2018-07-19T03:07:08.828Z,1012.98
2018-07-19T03:07:35.078Z,1012.94
2018-07-19T03:08:01.300Z,1012.95
2018-07-19T03:08:27.511Z,1012.94
2018-07-19T03:08:53.696Z,1012.95
2018-07-19T03:09:19.876Z,1012.93
2018-07-19T03:09:46.013Z,1012.94
2018-07-19T03:10:12.152Z,1012.96
2018-07-19T03:10:38.298Z,1012.97
2018-07-19T03:11:04.435Z,1012.98
2018-07-19T03:11:30.571Z,1012.94
2018-07-19T03:11:56.917Z,1012.95
2018-07-19T03:12:23.106Z,1012.93
2018-07-19T03:12:49.235Z,1012.96
2018-07-19T03:13:15.372Z,1012.95
2018-07-19T03:13:41.513Z,1012.99
2018-07-19T03:14:07.654Z,1012.93
2018-07-19T03:14:33.793Z,1012.9
2018-07-19T03:14:59.930Z,1012.95
2018-07-19T03:15:26.089Z,1012.93
2018-07-19T03:15:52.226Z,1012.94
2018-07-19T03:16:18.369Z,1012.92
2018-07-19T03:16:44.501Z,1012.94
2018-07-19T03:17:10.639Z,1012.95
2018-07-19T03:17:36.778Z,1012.94
2018-07-19T03:18:02.913Z,1012.99
2018-07-19T03:18:29.052Z,1012.95
2018-07-19T03:18:55.189Z,1012.93
2018-07-19T03:19:21.376Z,1012.95
2018-07-19T03:19:47.520Z,1013.01
2018-07-19T03:20:13.659Z,1012.98
2018-07-19T03:20:39.798Z,1012.99
2018-07-19T03:21:05.934Z,1012.97
2018-07-19T03:21:32.074Z,1013.01
2018-07-19T03:21:58.254Z,1013.02
2018-07-19T03:22:24.443Z,1012.97
2018-07-19T03:22:50.588Z,1013
2018-07-19T03:23:16.725Z,1012.99
2018-07-19T03:23:42.863Z,1012.97
2018-07-19T03:24:08.993Z,1013.01
2018-07-19T03:24:35.165Z,1013.01
2018-07-19T03:25:01.300Z,1013
2018-07-19T03:25:27.441Z,1012.93
2018-07-19T03:25:53.578Z,1012.96
2018-07-19T03:26:19.714Z,1012.98
2018-07-19T03:26:45.870Z,1013
2018-07-19T03:27:12.050Z,1012.97
2018-07-19T03:27:38.171Z,1012.99
2018-07-19T03:28:04.311Z,1012.99
2018-07-19T03:28:30.474Z,1012.96
2018-07-19T03:28:56.639Z,1013
2018-07-19T03:29:22.778Z,1013.01
2018-07-19T03:29:48.920Z,1012.97
2018-07-19T03:30:15.054Z,1012.98
2018-07-19T03:30:41.238Z,1013
2018-07-19T03:31:07.374Z,1013
2018-07-19T03:31:33.569Z,1012.98
2018-07-19T03:31:59.753Z,1012.96
2018-07-19T03:32:25.918Z,1012.96
2018-07-19T03:32:52.055Z,1012.96
2018-07-19T03:33:18.197Z,1012.94
2018-07-19T03:33:44.325Z,1012.97
2018-07-19T03:34:10.459Z,1012.99
2018-07-19T03:34:36.600Z,1012.97
2018-07-19T03:35:02.767Z,1012.97
2018-07-19T03:35:28.924Z,1012.98
2018-07-19T03:35:55.062Z,1012.98
2018-07-19T03:36:21.198Z,1012.98
2018-07-19T03:36:47.340Z,1012.98
2018-07-19T03:37:13.480Z,1012.98
2018-07-19T03:37:39.619Z,1012.98
2018-07-19T03:38:05.753Z,1012.98
2018-07-19T03:38:31.894Z,1012.96
2018-07-19T03:38:58.038Z,1012.95
2018-07-19T03:39:24.198Z,1013.01
2018-07-19T03:39:50.337Z,1013.03
2018-07-19T03:40:16.574Z,1012.98
2018-07-19T03:40:42.631Z,1012.97
2018-07-19T03:41:08.767Z,1013
2018-07-19T03:41:34.932Z,1012.99
2018-07-19T03:42:01.094Z,1012.97
2018-07-19T03:42:27.230Z,1012.98
2018-07-19T03:42:53.390Z,1012.95
2018-07-19T03:43:19.523Z,1012.97
2018-07-19T03:43:45.659Z,1012.95
2018-07-19T03:44:11.798Z,1012.96
2018-07-19T03:44:37.934Z,1012.97
2018-07-19T03:45:04.116Z,1012.97
2018-07-19T03:45:30.255Z,1012.96
2018-07-19T03:45:56.417Z,1012.97
2018-07-19T03:46:22.552Z,1012.94
2018-07-19T03:46:48.689Z,1012.93
2018-07-19T03:47:14.849Z,1012.91
2018-07-19T03:47:40.996Z,1012.94
2018-07-19T03:48:07.134Z,1012.9
2018-07-19T03:48:33.269Z,1012.94
2018-07-19T03:48:59.423Z,1012.91
2018-07-19T03:49:25.562Z,1012.93
2018-07-19T03:49:51.697Z,1012.92
2018-07-19T03:50:17.837Z,1012.92
2018-07-19T03:50:43.980Z,1012.95
2018-07-19T03:51:10.134Z,1012.94
2018-07-19T03:51:36.270Z,1012.91
2018-07-19T03:52:02.416Z,1012.92
2018-07-19T03:52:28.553Z,1012.9
2018-07-19T03:52:54.719Z,1012.9
2018-07-19T03:53:20.967Z,1012.93
2018-07-19T03:53:47.034Z,1012.92
2018-07-19T03:54:13.173Z,1012.92
2018-07-19T03:54:39.587Z,1012.9
2018-07-19T03:55:05.744Z,1012.92
2018-07-19T03:55:31.885Z,1012.9
2018-07-19T03:55:58.057Z,1012.91
2018-07-19T03:56:24.194Z,1012.91
2018-07-19T03:56:50.336Z,1012.92
2018-07-19T03:57:16.495Z,1012.9
2018-07-19T03:57:42.635Z,1012.92
2018-07-19T03:58:08.769Z,1012.93
2018-07-19T03:58:34.904Z,1012.85
2018-07-19T03:59:01.045Z,1012.91
2018-07-19T03:59:27.206Z,1012.93
2018-07-19T03:59:53.346Z,1012.91
2018-07-19T04:00:19.488Z,1012.93
2018-07-19T04:00:45.626Z,1012.93
2018-07-19T04:01:11.767Z,1012.94
2018-07-19T04:01:37.901Z,1012.94
2018-07-19T04:02:04.052Z,1012.95
2018-07-19T04:02:30.200Z,1012.95
2018-07-19T04:02:56.422Z,1012.97
2018-07-19T04:03:22.585Z,1012.92
2018-07-19T04:03:48.729Z,1012.95
2018-07-19T04:04:14.869Z,1012.96
2018-07-19T04:04:41.001Z,1012.96
2018-07-19T04:05:07.139Z,1012.99
2018-07-19T04:05:33.279Z,1012.96
2018-07-19T04:05:59.421Z,1012.93
2018-07-19T04:06:25.594Z,1012.94
2018-07-19T04:06:51.761Z,1012.95
2018-07-19T04:07:17.901Z,1012.93
2018-07-19T04:07:44.037Z,1012.96
2018-07-19T04:08:10.172Z,1012.95
2018-07-19T04:08:36.317Z,1012.96
2018-07-19T04:09:02.475Z,1012.95
2018-07-19T04:09:28.611Z,1012.9
2018-07-19T04:09:54.756Z,1012.96
2018-07-19T04:10:20.899Z,1012.94
2018-07-19T04:10:47.031Z,1012.96
2018-07-19T04:11:13.168Z,1012.94
2018-07-19T04:11:39.307Z,1012.94
2018-07-19T04:12:05.449Z,1012.91
2018-07-19T04:12:31.585Z,1012.92
2018-07-19T04:12:57.723Z,1012.93
2018-07-19T04:13:23.860Z,1012.95
2018-07-19T04:13:49.994Z,1012.98
2018-07-19T04:14:16.130Z,1012.93
2018-07-19T04:14:42.294Z,1012.96
2018-07-19T04:15:08.434Z,1012.94
2018-07-19T04:15:34.561Z,1012.98
2018-07-19T04:16:00.707Z,1012.93
2018-07-19T04:16:26.840Z,1012.95
2018-07-19T04:16:52.987Z,1012.94
2018-07-19T04:17:19.152Z,1012.96
2018-07-19T04:17:45.305Z,1012.96
2018-07-19T04:18:11.433Z,1012.93
2018-07-19T04:18:37.571Z,1012.94
2018-07-19T04:19:03.732Z,1012.96
2018-07-19T04:19:29.875Z,1012.95
2018-07-19T04:19:56.012Z,1012.95
2018-07-19T04:20:22.149Z,1012.94
2018-07-19T04:20:48.292Z,1012.94
2018-07-19T04:21:14.431Z,1012.96
2018-07-19T04:21:40.568Z,1012.96
2018-07-19T04:22:06.714Z,1012.92
2018-07-19T04:22:32.853Z,1012.94
2018-07-19T04:22:59.000Z,1012.92
2018-07-19T04:23:25.160Z,1012.95
2018-07-19T04:23:51.299Z,1012.93
2018-07-19T04:24:17.436Z,1012.94
2018-07-19T04:24:43.574Z,1012.92
2018-07-19T04:25:09.788Z,1012.97
2018-07-19T04:25:35.893Z,1012.91
2018-07-19T04:26:02.032Z,1012.97
2018-07-19T04:26:28.174Z,1012.95
2018-07-19T04:26:54.331Z,1012.93
2018-07-19T04:27:20.495Z,1012.95
2018-07-19T04:27:46.648Z,1012.94
2018-07-19T04:28:12.820Z,1012.92
2018-07-19T04:28:38.958Z,1012.91
2018-07-19T04:29:05.132Z,1012.91
2018-07-19T04:29:31.260Z,1012.93
2018-07-19T04:29:57.398Z,1012.88
2018-07-19T04:30:23.534Z,1012.92
2018-07-19T04:30:50.036Z,1012.93
2018-07-19T04:31:16.129Z,1012.94
2018-07-19T04:31:42.272Z,1012.88
2018-07-19T04:32:08.442Z,1012.93
2018-07-19T04:32:34.581Z,1012.96
2018-07-19T04:33:00.724Z,1012.95
2018-07-19T04:33:26.858Z,1012.94
2018-07-19T04:33:53.021Z,1012.96
2018-07-19T04:34:19.181Z,1012.92
2018-07-19T04:34:45.342Z,1012.93
2018-07-19T04:35:11.477Z,1012.94
2018-07-19T04:35:37.620Z,1012.97
2018-07-19T04:36:03.768Z,1012.92
2018-07-19T04:36:29.907Z,1012.96
2018-07-19T04:36:56.071Z,1012.95
2018-07-19T04:37:22.237Z,1012.95
2018-07-19T04:37:48.372Z,1012.93
2018-07-19T04:38:14.619Z,1012.93
2018-07-19T04:38:40.700Z,1012.96
2018-07-19T04:39:06.839Z,1012.91
2018-07-19T04:39:32.982Z,1012.98
2018-07-19T04:39:59.122Z,1012.94
2018-07-19T04:40:25.260Z,1012.97
2018-07-19T04:40:51.393Z,1012.97
2018-07-19T04:41:17.531Z,1012.96
2018-07-19T04:41:43.659Z,1012.95
2018-07-19T04:42:09.803Z,1012.97
2018-07-19T04:42:35.959Z,1012.95
2018-07-19T04:43:02.090Z,1012.97
2018-07-19T04:43:28.258Z,1012.97
2018-07-19T04:43:54.430Z,1012.95
2018-07-19T04:44:20.565Z,1012.97
2018-07-19T04:44:46.698Z,1012.96
2018-07-19T04:45:12.846Z,1012.95
2018-07-19T04:45:38.987Z,1012.95
2018-07-19T04:46:05.122Z,1012.96
2018-07-19T04:46:31.257Z,1012.97
2018-07-19T04:46:57.394Z,1012.93
2018-07-19T04:47:23.533Z,1012.97
2018-07-19T04:47:49.671Z,1012.96
2018-07-19T04:48:15.911Z,1012.98
2018-07-19T04:48:41.967Z,1012.94
2018-07-19T04:49:08.111Z,1012.96
2018-07-19T04:49:34.251Z,1012.95
2018-07-19T04:50:00.390Z,1012.95
2018-07-19T04:50:26.528Z,1012.97
2018-07-19T04:50:52.669Z,1012.98
2018-07-19T04:51:18.820Z,1012.99
2018-07-19T04:51:44.959Z,1013
2018-07-19T04:52:11.133Z,1012.99
2018-07-19T04:52:37.277Z,1013.01
2018-07-19T04:53:03.434Z,1012.97
2018-07-19T04:53:29.580Z,1012.99
2018-07-19T04:53:55.729Z,1013
2018-07-19T04:54:21.863Z,1013.01
2018-07-19T04:54:48.022Z,1013.01
2018-07-19T04:55:14.157Z,1013.03
2018-07-19T04:55:40.295Z,1013.03
2018-07-19T04:56:06.430Z,1013.03
2018-07-19T04:56:32.603Z,1013.05
2018-07-19T04:56:58.748Z,1013.08
2018-07-19T04:57:24.895Z,1013.11
2018-07-19T04:57:51.034Z,1013.09
2018-07-19T04:58:17.175Z,1013.08
2018-07-19T04:58:43.316Z,1013.08
2018-07-19T04:59:09.458Z,1013.03
2018-07-19T04:59:35.597Z,1013.06
2018-07-19T05:00:01.786Z,1012.97
2018-07-19T05:00:27.945Z,1012.99
2018-07-19T05:00:54.097Z,1012.97
2018-07-19T05:01:20.239Z,1012.97
2018-07-19T05:01:46.371Z,1012.95
2018-07-19T05:02:12.525Z,1012.96
2018-07-19T05:02:38.667Z,1012.99
2018-07-19T05:03:04.800Z,1013
2018-07-19T05:03:30.937Z,1013.01
2018-07-19T05:03:57.101Z,1013.01
2018-07-19T05:04:23.219Z,1012.99
2018-07-19T05:04:49.358Z,1012.99
2018-07-19T05:05:15.502Z,1013
2018-07-19T05:05:41.639Z,1012.98
2018-07-19T05:06:07.809Z,1013.01
2018-07-19T05:06:33.945Z,1012.98
2018-07-19T05:07:00.089Z,1013.01
2018-07-19T05:07:26.227Z,1013.02
2018-07-19T05:07:52.369Z,1013
2018-07-19T05:08:18.504Z,1013.02
2018-07-19T05:08:44.637Z,1013.03
2018-07-19T05:09:10.797Z,1013.04
2018-07-19T05:09:36.938Z,1013.03
2018-07-19T05:10:03.075Z,1013.02
2018-07-19T05:10:29.232Z,1013.06
2018-07-19T05:10:55.373Z,1013.02
2018-07-19T05:11:21.540Z,1013.07
2018-07-19T05:11:47.672Z,1013.06
2018-07-19T05:12:13.808Z,1013.07
2018-07-19T05:12:39.967Z,1013.05
2018-07-19T05:13:06.174Z,1013.08
2018-07-19T05:13:32.313Z,1013.06
2018-07-19T05:13:58.504Z,1013.04
2018-07-19T05:14:24.615Z,1013.06
2018-07-19T05:14:50.759Z,1013.08
2018-07-19T05:15:16.894Z,1013.07
2018-07-19T05:15:43.040Z,1013.07
2018-07-19T05:16:09.180Z,1013.08
2018-07-19T05:16:35.316Z,1013.09
2018-07-19T05:17:01.470Z,1013.1
2018-07-19T05:17:27.615Z,1013.09
2018-07-19T05:17:53.764Z,1013.05
2018-07-19T05:18:19.898Z,1013.07